Time;durP1;ratioP1;P1;durP2;ratioP2;P2;SDS_P1;SDS_P2;PMS_P1;PMS_P2;Temp;Humidity;BMP_temperature;BMP_pressure;BME280_temperature;BME280_humidity;BME280_pressure;Samples;Min_cycle;Max_cycle;Signal;HPM_P1;HPM_P2
2024/04/17 00:01:37;;;;;;;16.40;15.90;;;;;;;;;;5465841;26;20480;-70
2024/04/17 00:04:03;;;;;;;16.10;15.60;;;;;;;;;;5465793;26;20483;-69
2024/04/17 00:06:32;;;;;;;16.10;15.60;;;;;;;;;;5466737;26;20476;-69
2024/04/17 00:09:01;;;;;;;15.90;15.40;;;;;;;;;;5466955;26;20468;-69
2024/04/17 00:11:30;;;;;;;16.10;15.60;;;;;;;;;;5463977;25;20486;-69
2024/04/17 00:13:56;;;;;;;15.17;14.77;;;;;;;;;;5468979;26;20528;-70
2024/04/17 00:16:25;;;;;;;15.87;15.37;;;;;;;;;;5466049;26;20580;-70
2024/04/17 00:18:51;;;;;;;16.10;15.60;;;;;;;;;;5469108;25;20865;-68
2024/04/17 00:21:20;;;;;;;15.90;15.40;;;;;;;;;;5465693;26;20513;-69
2024/04/17 00:23:46;;;;;;;15.23;14.83;;;;;;;;;;5465353;25;20518;-69
2024/04/17 00:26:18;;;;;;;15.70;15.20;;;;;;;;;;5468989;26;20974;-68
2024/04/17 00:28:45;;;;;;;15.87;15.37;;;;;;;;;;5469212;26;20563;-70
2024/04/17 00:31:14;;;;;;;15.90;15.40;;;;;;;;;;5468861;25;20477;-70
2024/04/17 00:33:40;;;;;;;16.60;16.10;;;;;;;;;;5468579;25;21343;-70
2024/04/17 00:36:09;;;;;;;16.10;15.60;;;;;;;;;;5471220;26;21268;-70
2024/04/17 00:38:36;;;;;;;16.47;15.97;;;;;;;;;;5467925;26;20551;-70
2024/04/17 00:41:05;;;;;;;16.60;16.10;;;;;;;;;;5467458;25;20584;-68
2024/04/17 00:43:34;;;;;;;16.70;16.20;;;;;;;;;;5465512;25;20803;-69
2024/04/17 00:46:02;;;;;;;17.00;16.50;;;;;;;;;;5467371;26;20874;-67
2024/04/17 00:48:29;;;;;;;16.90;16.40;;;;;;;;;;5467909;25;20472;-69
2024/04/17 00:50:58;;;;;;;16.00;15.50;;;;;;;;;;5466973;26;20764;-69
2024/04/17 00:53:25;;;;;;;16.83;16.33;;;;;;;;;;5469808;26;20464;-66
2024/04/17 00:55:55;;;;;;;15.33;14.93;;;;;;;;;;5512156;26;20595;-68
2024/04/17 00:58:21;;;;;;;16.70;16.20;;;;;;;;;;5515373;26;20597;-68
2024/04/17 01:00:53;;;;;;;16.47;15.97;;;;;;;;;;5520808;25;21058;-67
2024/04/17 01:03:19;;;;;;;16.77;16.27;;;;;;;;;;5497706;26;21051;-67
2024/04/17 01:05:48;;;;;;;16.30;15.80;;;;;;;;;;5522387;25;21083;-68
2024/04/17 01:08:15;;;;;;;16.70;16.20;;;;;;;;;;5535801;25;20492;-69
2024/04/17 01:10:44;;;;;;;16.20;15.70;;;;;;;;;;5505525;26;20597;-68
2024/04/17 01:13:12;;;;;;;16.27;15.77;;;;;;;;;;5520626;26;20515;-68
2024/04/17 01:15:41;;;;;;;15.53;15.13;;;;;;;;;;5498772;26;20465;-67
2024/04/17 01:18:10;;;;;;;16.27;15.77;;;;;;;;;;5507619;25;21003;-67
2024/04/17 01:20:40;;;;;;;16.73;16.23;;;;;;;;;;5489976;26;20464;-67
2024/04/17 01:23:07;;;;;;;17.03;16.53;;;;;;;;;;5502507;25;20476;-68
2024/04/17 01:25:38;;;;;;;16.77;16.27;;;;;;;;;;5520203;25;20857;-67
2024/04/17 01:28:05;;;;;;;16.03;15.53;;;;;;;;;;5508930;26;20856;-68
2024/04/17 01:30:34;;;;;;;15.90;15.40;;;;;;;;;;5507924;26;20468;-68
2024/04/17 01:33:00;;;;;;;16.40;15.90;;;;;;;;;;5514053;25;20502;-67
2024/04/17 01:35:29;;;;;;;16.73;16.23;;;;;;;;;;5503600;26;20964;-67
2024/04/17 01:37:57;;;;;;;16.43;15.93;;;;;;;;;;5521908;26;21050;-69
2024/04/17 01:40:26;;;;;;;16.83;16.33;;;;;;;;;;5496908;26;20510;-69
2024/04/17 01:42:55;;;;;;;17.20;16.70;;;;;;;;;;5508641;26;20457;-67
2024/04/17 01:45:24;;;;;;;16.93;16.43;;;;;;;;;;5497469;26;20542;-65
2024/04/17 01:47:51;;;;;;;17.37;16.87;;;;;;;;;;5509816;25;20474;-66
2024/04/17 01:50:28;;;;;;;17.13;16.63;;;;;;;;;;5513340;26;20528;-68
2024/04/17 01:52:54;;;;;;;19.27;18.57;;;;;;;;;;5501369;26;20462;-69
2024/04/17 01:55:23;;;;;;;18.10;17.50;;;;;;;;;;5509625;26;20517;-68
2024/04/17 01:57:50;;;;;;;18.90;18.30;;;;;;;;;;5507992;26;21050;-67
2024/04/17 02:00:22;;;;;;;19.77;19.07;;;;;;;;;;5496953;26;20834;-68
2024/04/17 02:02:49;;;;;;;18.73;18.13;;;;;;;;;;5509584;25;20578;-68
2024/04/17 02:05:18;;;;;;;19.37;18.67;;;;;;;;;;5509277;26;20953;-67
2024/04/17 02:07:44;;;;;;;19.60;18.90;;;;;;;;;;5502382;26;20481;-69
2024/04/17 02:10:14;;;;;;;20.07;19.37;;;;;;;;;;5509343;26;20913;-67
2024/04/17 02:12:40;;;;;;;19.47;18.77;;;;;;;;;;5508543;26;20627;-68
2024/04/17 02:15:10;;;;;;;19.97;19.27;;;;;;;;;;5495116;26;20461;-69
2024/04/17 02:17:38;;;;;;;19.13;18.43;;;;;;;;;;5499893;25;20809;-67
2024/04/17 02:20:08;;;;;;;19.27;18.57;;;;;;;;;;5506980;25;20589;-68
2024/04/17 02:22:34;;;;;;;19.27;18.57;;;;;;;;;;5508432;25;20467;-68
2024/04/17 02:25:03;;;;;;;19.10;18.40;;;;;;;;;;5499352;25;20612;-69
2024/04/17 02:27:29;;;;;;;20.13;19.43;;;;;;;;;;5514160;25;20482;-67
2024/04/17 02:29:58;;;;;;;20.00;19.30;;;;;;;;;;5505084;26;20629;-69
2024/04/17 02:32:24;;;;;;;19.87;19.17;;;;;;;;;;5508333;25;20471;-68
2024/04/17 02:34:57;;;;;;;20.67;19.90;;;;;;;;;;5518093;26;20452;-68
2024/04/17 02:37:24;;;;;;;21.23;20.43;;;;;;;;;;5496950;26;20523;-69
2024/04/17 02:39:53;;;;;;;21.03;20.23;;;;;;;;;;5516430;25;20476;-69
2024/04/17 02:42:20;;;;;;;20.37;19.60;;;;;;;;;;5513267;26;20464;-69
2024/04/17 02:44:49;;;;;;;19.97;19.27;;;;;;;;;;5498405;26;20585;-68
2024/04/17 02:47:15;;;;;;;20.20;19.50;;;;;;;;;;5504229;26;20563;-67
2024/04/17 02:49:44;;;;;;;20.27;19.57;;;;;;;;;;5509372;26;20839;-67
2024/04/17 02:52:13;;;;;;;20.30;19.60;;;;;;;;;;5509310;25;20476;-70
2024/04/17 02:54:42;;;;;;;19.77;19.07;;;;;;;;;;5519468;26;20859;-69
2024/04/17 02:57:08;;;;;;;19.87;19.17;;;;;;;;;;5508656;25;20460;-68
2024/04/17 02:59:38;;;;;;;21.60;20.80;;;;;;;;;;5498461;26;20471;-67
2024/04/17 03:02:04;;;;;;;21.33;20.53;;;;;;;;;;5505182;26;21080;-69
2024/04/17 03:04:33;;;;;;;20.80;20.00;;;;;;;;;;5512612;26;20543;-69
2024/04/17 03:06:59;;;;;;;20.53;19.73;;;;;;;;;;5506716;25;20452;-67
2024/04/17 03:09:30;;;;;;;21.47;20.67;;;;;;;;;;5505246;26;20487;-68
2024/04/17 03:11:57;;;;;;;20.97;20.17;;;;;;;;;;5504212;26;20863;-68
2024/04/17 03:14:26;;;;;;;20.97;20.17;;;;;;;;;;5510812;26;20518;-68
2024/04/17 03:16:52;;;;;;;21.43;20.63;;;;;;;;;;5514669;26;21027;-67
2024/04/17 03:19:21;;;;;;;21.37;20.57;;;;;;;;;;5508264;25;20582;-69
2024/04/17 03:21:47;;;;;;;21.27;20.47;;;;;;;;;;5507890;25;20642;-68
2024/04/17 03:24:17;;;;;;;21.10;20.30;;;;;;;;;;5511671;25;20472;-69
2024/04/17 03:26:47;;;;;;;20.97;20.17;;;;;;;;;;5493519;26;20580;-68
2024/04/17 03:29:16;;;;;;;21.50;20.60;;;;;;;;;;5499429;26;20581;-67
2024/04/17 03:31:43;;;;;;;21.37;20.53;;;;;;;;;;5503837;26;20544;-69
2024/04/17 03:34:12;;;;;;;22.73;21.83;;;;;;;;;;5504655;26;20523;-67
2024/04/17 03:36:39;;;;;;;23.00;22.10;;;;;;;;;;5513940;26;20538;-69
2024/04/17 03:39:08;;;;;;;21.57;20.67;;;;;;;;;;5510122;25;20469;-69
2024/04/17 03:41:38;;;;;;;21.93;21.03;;;;;;;;;;5510761;26;20800;-67
2024/04/17 03:44:10;;;;;;;21.53;20.63;;;;;;;;;;5493741;25;20508;-69
2024/04/17 03:46:39;;;;;;;22.80;21.90;;;;;;;;;;5519476;26;20537;-66
2024/04/17 03:49:05;;;;;;;22.47;21.57;;;;;;;;;;5511156;25;21052;-67
2024/04/17 03:51:34;;;;;;;22.40;21.50;;;;;;;;;;5512650;26;20510;-67
2024/04/17 03:54:00;;;;;;;22.53;21.63;;;;;;;;;;5521790;25;20454;-67
2024/04/17 03:56:29;;;;;;;23.23;22.33;;;;;;;;;;5508155;25;20824;-68
2024/04/17 03:58:55;;;;;;;23.07;22.17;;;;;;;;;;5512181;26;21264;-69
2024/04/17 04:01:27;;;;;;;21.80;20.90;;;;;;;;;;5507908;25;20467;-69
2024/04/17 04:03:53;;;;;;;22.23;21.33;;;;;;;;;;5501589;26;20477;-67
2024/04/17 04:06:23;;;;;;;22.20;21.30;;;;;;;;;;5509785;25;20450;-67
2024/04/17 04:08:49;;;;;;;21.33;20.50;;;;;;;;;;5515304;26;20986;-67
2024/04/17 04:11:18;;;;;;;21.97;21.07;;;;;;;;;;5512741;26;20466;-67
2024/04/17 04:13:44;;;;;;;21.87;20.97;;;;;;;;;;5504945;26;21112;-68
2024/04/17 04:16:13;;;;;;;21.63;20.73;;;;;;;;;;5509204;26;20852;-69
2024/04/17 04:18:42;;;;;;;22.00;21.10;;;;;;;;;;5505498;25;21016;-69
2024/04/17 04:21:11;;;;;;;22.07;21.17;;;;;;;;;;5505994;25;20853;-68
2024/04/17 04:23:38;;;;;;;22.43;21.53;;;;;;;;;;5507654;25;20924;-70
2024/04/17 04:26:08;;;;;;;22.60;21.70;;;;;;;;;;5512205;26;20866;-67
2024/04/17 04:28:35;;;;;;;21.93;21.03;;;;;;;;;;5495191;26;20476;-69
2024/04/17 04:31:04;;;;;;;22.07;21.17;;;;;;;;;;5502197;26;20489;-69
2024/04/17 04:33:30;;;;;;;21.50;20.70;;;;;;;;;;5502996;25;20852;-68
2024/04/17 04:36:02;;;;;;;21.53;20.73;;;;;;;;;;5497472;26;21049;-69
2024/04/17 04:38:28;;;;;;;21.80;21.00;;;;;;;;;;5513040;26;20602;-67
2024/04/17 04:40:57;;;;;;;22.03;21.17;;;;;;;;;;5508020;25;20470;-68
2024/04/17 04:43:23;;;;;;;22.43;21.53;;;;;;;;;;5508995;26;20476;-67
2024/04/17 04:45:53;;;;;;;21.50;20.70;;;;;;;;;;5512555;25;20523;-69
2024/04/17 04:48:19;;;;;;;21.83;21.03;;;;;;;;;;5495623;26;20476;-68
2024/04/17 04:50:48;;;;;;;21.17;20.37;;;;;;;;;;5495497;25;20526;-67
2024/04/17 04:53:17;;;;;;;20.80;20.00;;;;;;;;;;5505520;25;20565;-68
2024/04/17 04:55:45;;;;;;;19.97;19.27;;;;;;;;;;5499257;26;20468;-67
2024/04/17 04:58:12;;;;;;;20.07;19.37;;;;;;;;;;5498509;25;20924;-69
2024/04/17 05:00:41;;;;;;;20.27;19.57;;;;;;;;;;5500748;25;20481;-69
2024/04/17 05:03:08;;;;;;;20.33;19.63;;;;;;;;;;5517650;26;20789;-69
2024/04/17 05:05:37;;;;;;;20.60;19.90;;;;;;;;;;5494638;25;20508;-67
2024/04/17 05:08:06;;;;;;;21.03;20.27;;;;;;;;;;5500149;26;20538;-68
2024/04/17 05:10:35;;;;;;;20.80;20.10;;;;;;;;;;5496685;26;20474;-67
2024/04/17 05:13:05;;;;;;;20.30;19.60;;;;;;;;;;5506426;25;20465;-68
2024/04/17 05:15:31;;;;;;;20.10;19.40;;;;;;;;;;5514093;26;20991;-68
2024/04/17 05:18:01;;;;;;;19.80;19.10;;;;;;;;;;5508779;25;20474;-69
2024/04/17 05:20:27;;;;;;;20.40;19.60;;;;;;;;;;5499461;25;20827;-69
2024/04/17 05:22:56;;;;;;;19.00;18.30;;;;;;;;;;5510191;25;20587;-69
2024/04/17 05:25:23;;;;;;;19.63;18.93;;;;;;;;;;5473494;26;20620;-68
2024/04/17 05:27:55;;;;;;;18.90;18.20;;;;;;;;;;5475310;26;20464;-67
2024/04/17 05:30:21;;;;;;;19.77;19.07;;;;;;;;;;5475814;26;20555;-68
2024/04/17 05:32:50;;;;;;;19.20;18.50;;;;;;;;;;5477080;26;20466;-69
2024/04/17 05:35:17;;;;;;;18.57;17.97;;;;;;;;;;5460486;26;21135;-67
2024/04/17 05:37:46;;;;;;;19.47;18.77;;;;;;;;;;5467302;26;20587;-69
2024/04/17 05:40:14;;;;;;;19.17;18.47;;;;;;;;;;5477208;26;20804;-68
2024/04/17 05:42:43;;;;;;;19.67;18.97;;;;;;;;;;5480551;26;20443;-67
2024/04/17 05:45:13;;;;;;;19.77;19.07;;;;;;;;;;5469776;26;20558;-69
2024/04/17 05:47:42;;;;;;;19.87;19.17;;;;;;;;;;5484344;26;20478;-69
2024/04/17 05:50:11;;;;;;;19.23;18.53;;;;;;;;;;5470638;26;20478;-69
2024/04/17 05:52:38;;;;;;;19.33;18.63;;;;;;;;;;5484838;26;20826;-70
2024/04/17 05:55:08;;;;;;;19.50;18.80;;;;;;;;;;5472441;26;20481;-69
2024/04/17 05:57:34;;;;;;;21.70;20.90;;;;;;;;;;5472371;26;20482;-70
2024/04/17 06:00:04;;;;;;;21.30;20.50;;;;;;;;;;5467905;26;20478;-69
2024/04/17 06:02:32;;;;;;;20.17;19.47;;;;;;;;;;5471924;26;20558;-69
2024/04/17 06:05:02;;;;;;;20.57;19.77;;;;;;;;;;5470645;26;20518;-68
2024/04/17 06:07:28;;;;;;;20.77;19.97;;;;;;;;;;5465347;26;21062;-70
2024/04/17 06:09:57;;;;;;;19.70;19.00;;;;;;;;;;5478883;26;21087;-69
2024/04/17 06:12:23;;;;;;;20.60;19.80;;;;;;;;;;5473130;26;20522;-69
2024/04/17 06:14:52;;;;;;;19.47;18.77;;;;;;;;;;5480288;26;20579;-69
2024/04/17 06:17:19;;;;;;;19.67;18.97;;;;;;;;;;5461282;26;20522;-70
2024/04/17 06:19:52;;;;;;;19.20;18.50;;;;;;;;;;5483442;26;20478;-69
2024/04/17 06:22:19;;;;;;;21.47;20.57;;;;;;;;;;5470031;26;21008;-67
2024/04/17 06:24:48;;;;;;;22.50;21.50;;;;;;;;;;5505931;26;20482;-68
2024/04/17 06:27:14;;;;;;;21.57;20.67;;;;;;;;;;5503086;25;20539;-68
2024/04/17 06:29:44;;;;;;;22.07;21.07;;;;;;;;;;5511973;25;20539;-69
2024/04/17 06:32:10;;;;;;;20.40;19.60;;;;;;;;;;5517541;26;20517;-70
2024/04/17 06:34:40;;;;;;;18.50;17.80;;;;;;;;;;5490675;26;20604;-69
2024/04/17 06:37:10;;;;;;;17.47;16.87;;;;;;;;;;5511918;26;21121;-72
2024/04/17 06:39:39;;;;;;;17.07;16.47;;;;;;;;;;5503400;26;20469;-70
2024/04/17 06:42:20;;;;;;;17.47;16.87;;;;;;;;;;5504420;26;20476;-68
2024/04/17 06:44:49;;;;;;;17.50;16.90;;;;;;;;;;5507427;26;20503;-69
2024/04/17 06:47:16;;;;;;;18.53;17.83;;;;;;;;;;5506626;25;21041;-71
2024/04/17 06:49:45;;;;;;;18.57;17.87;;;;;;;;;;5507997;26;20473;-71
2024/04/17 06:52:14;;;;;;;18.70;18.00;;;;;;;;;;5500169;25;21222;-70
2024/04/17 06:54:43;;;;;;;18.73;18.03;;;;;;;;;;5498392;26;20549;-71
2024/04/17 06:57:10;;;;;;;19.03;18.33;;;;;;;;;;5506984;26;20488;-71
2024/04/17 06:59:38;;;;;;;19.20;18.50;;;;;;;;;;5499991;26;20461;-70
2024/04/17 07:02:05;;;;;;;19.90;19.10;;;;;;;;;;5512094;26;20488;-70
2024/04/17 07:04:34;;;;;;;19.47;18.77;;;;;;;;;;5493767;26;20547;-70
2024/04/17 07:07:01;;;;;;;17.97;17.37;;;;;;;;;;5499670;26;20589;-70
2024/04/17 07:09:33;;;;;;;18.37;17.67;;;;;;;;;;5502237;26;20636;-71
2024/04/17 07:11:59;;;;;;;17.50;16.90;;;;;;;;;;5497036;26;20472;-71
2024/04/17 07:14:28;;;;;;;17.23;16.63;;;;;;;;;;5510264;26;20520;-68
2024/04/17 07:16:54;;;;;;;16.03;15.53;;;;;;;;;;5505154;26;20548;-70
2024/04/17 07:19:25;;;;;;;16.47;15.97;;;;;;;;;;5504138;25;20554;-69
2024/04/17 07:21:51;;;;;;;17.27;16.67;;;;;;;;;;5501339;26;20519;-68
2024/04/17 07:24:23;;;;;;;17.57;16.97;;;;;;;;;;5503789;26;20544;-70
2024/04/17 07:26:53;;;;;;;17.60;17.00;;;;;;;;;;5504224;26;20484;-71
2024/04/17 07:29:22;;;;;;;18.07;17.47;;;;;;;;;;5504052;26;20488;-68
2024/04/17 07:31:49;;;;;;;17.73;17.13;;;;;;;;;;5494323;26;20473;-70
2024/04/17 07:34:18;;;;;;;18.87;18.17;;;;;;;;;;5502506;26;20461;-69
2024/04/17 07:36:46;;;;;;;19.10;18.40;;;;;;;;;;5501779;26;20468;-71
2024/04/17 07:39:16;;;;;;;18.80;18.10;;;;;;;;;;5504917;26;20529;-68
2024/04/17 07:41:42;;;;;;;19.53;18.73;;;;;;;;;;5505256;25;20491;-67
2024/04/17 07:44:14;;;;;;;19.40;18.60;;;;;;;;;;5497236;26;21037;-71
2024/04/17 07:46:40;;;;;;;18.73;18.03;;;;;;;;;;5505503;26;20533;-69
2024/04/17 07:49:09;;;;;;;18.50;17.80;;;;;;;;;;5505106;26;20477;-69
2024/04/17 07:51:36;;;;;;;18.00;17.30;;;;;;;;;;5500665;26;20559;-71
2024/04/17 07:54:06;;;;;;;18.50;17.80;;;;;;;;;;5496093;26;20473;-71
2024/04/17 07:56:33;;;;;;;17.97;17.27;;;;;;;;;;5495034;26;20472;-70
2024/04/17 07:59:02;;;;;;;19.60;18.80;;;;;;;;;;5498650;26;20874;-70
2024/04/17 08:01:32;;;;;;;18.00;17.30;;;;;;;;;;5487275;25;20591;-71
2024/04/17 08:04:01;;;;;;;18.17;17.47;;;;;;;;;;5500372;25;20472;-68
2024/04/17 08:06:27;;;;;;;17.77;17.07;;;;;;;;;;5500252;25;20544;-69
2024/04/17 08:08:56;;;;;;;17.33;16.73;;;;;;;;;;5499068;25;20590;-70
2024/04/17 08:11:22;;;;;;;17.43;16.83;;;;;;;;;;5489039;25;20472;-71
2024/04/17 08:13:51;;;;;;;17.43;16.83;;;;;;;;;;5490945;25;20470;-69
2024/04/17 08:16:18;;;;;;;17.90;17.20;;;;;;;;;;5489374;25;20477;-71
2024/04/17 08:18:49;;;;;;;17.73;17.03;;;;;;;;;;5497894;25;20998;-68
2024/04/17 08:21:16;;;;;;;17.90;17.20;;;;;;;;;;5492424;25;20494;-68
2024/04/17 08:23:45;;;;;;;17.33;16.63;;;;;;;;;;5499950;25;20472;-71
2024/04/17 08:26:12;;;;;;;18.27;17.57;;;;;;;;;;5497284;25;20544;-70
2024/04/17 08:28:40;;;;;;;17.50;16.80;;;;;;;;;;5495674;25;20463;-71
2024/04/17 08:31:07;;;;;;;18.20;17.40;;;;;;;;;;5491249;25;20467;-70
2024/04/17 08:33:36;;;;;;;18.07;17.27;;;;;;;;;;5501407;25;20894;-71
2024/04/17 08:36:05;;;;;;;17.87;17.07;;;;;;;;;;5504718;25;20476;-70
2024/04/17 08:38:34;;;;;;;18.30;17.50;;;;;;;;;;5499393;25;20877;-71
2024/04/17 08:41:01;;;;;;;18.50;17.70;;;;;;;;;;5494862;25;20488;-69
2024/04/17 08:43:30;;;;;;;18.40;17.60;;;;;;;;;;5492360;25;20612;-69
2024/04/17 08:45:58;;;;;;;18.80;17.90;;;;;;;;;;5492039;25;21024;-70
2024/04/17 08:48:28;;;;;;;18.40;17.50;;;;;;;;;;5499066;25;20558;-71
2024/04/17 08:50:55;;;;;;;19.07;18.17;;;;;;;;;;5496447;25;20955;-70
2024/04/17 08:53:29;;;;;;;19.27;18.27;;;;;;;;;;5497234;25;20461;-71
2024/04/17 08:55:56;;;;;;;19.87;18.87;;;;;;;;;;5499064;25;20529;-69
2024/04/17 08:58:25;;;;;;;19.40;18.40;;;;;;;;;;5495708;25;20824;-68
2024/04/17 09:00:52;;;;;;;19.73;18.73;;;;;;;;;;5499232;25;20673;-68
2024/04/17 09:03:24;;;;;;;19.50;18.40;;;;;;;;;;5499956;25;20933;-68
2024/04/17 09:05:52;;;;;;;19.93;18.83;;;;;;;;;;5491907;25;20542;-70
2024/04/17 09:08:21;;;;;;;19.97;18.87;;;;;;;;;;5492393;25;20566;-68
2024/04/17 09:10:50;;;;;;;20.07;18.97;;;;;;;;;;5499682;25;20562;-68
2024/04/17 09:13:20;;;;;;;18.53;17.53;;;;;;;;;;5498164;25;20494;-68
2024/04/17 09:15:47;;;;;;;19.30;18.20;;;;;;;;;;5500252;25;20975;-68
2024/04/17 09:18:17;;;;;;;19.37;18.37;;;;;;;;;;5492252;25;20570;-70
2024/04/17 09:20:43;;;;;;;18.70;17.70;;;;;;;;;;5502598;25;21044;-68
2024/04/17 09:23:12;;;;;;;18.70;17.70;;;;;;;;;;5491700;25;20575;-70
2024/04/17 09:25:39;;;;;;;18.90;17.90;;;;;;;;;;5489724;25;20484;-69
2024/04/17 09:28:12;;;;;;;18.53;17.53;;;;;;;;;;5494878;25;20472;-69
2024/04/17 09:30:38;;;;;;;18.67;17.67;;;;;;;;;;5499511;25;20639;-69
2024/04/17 09:33:08;;;;;;;18.70;17.70;;;;;;;;;;5494148;25;20572;-69
2024/04/17 09:35:37;;;;;;;18.87;17.87;;;;;;;;;;5503296;25;20539;-71
2024/04/17 09:38:06;;;;;;;18.10;17.20;;;;;;;;;;5496855;25;20543;-70
2024/04/17 09:40:32;;;;;;;17.63;16.73;;;;;;;;;;5486150;25;20493;-70
2024/04/17 09:43:01;;;;;;;16.67;15.87;;;;;;;;;;5492965;25;20953;-71
2024/04/17 09:45:33;;;;;;;16.63;15.93;;;;;;;;;;5497418;25;20473;-70
2024/04/17 09:48:04;;;;;;;15.30;14.70;;;;;;;;;;5494182;25;20477;-71
2024/04/17 09:50:34;;;;;;;16.30;15.60;;;;;;;;;;5497366;25;20554;-71
2024/04/17 09:53:04;;;;;;;16.10;15.40;;;;;;;;;;5489998;25;20812;-70
2024/04/17 09:55:31;;;;;;;14.93;14.33;;;;;;;;;;5493023;25;20479;-70
2024/04/17 09:58:01;;;;;;;16.50;15.80;;;;;;;;;;5497045;25;20569;-69
2024/04/17 10:00:27;;;;;;;15.57;14.97;;;;;;;;;;5494652;25;20526;-70
2024/04/17 10:03:00;;;;;;;15.97;15.30;;;;;;;;;;5495247;25;20480;-70
2024/04/17 10:05:27;;;;;;;16.10;15.40;;;;;;;;;;5496378;25;20464;-70
2024/04/17 10:07:57;;;;;;;16.30;15.60;;;;;;;;;;5501020;25;20545;-70
2024/04/17 10:10:24;;;;;;;15.90;15.30;;;;;;;;;;5496732;25;20524;-69
2024/04/17 10:12:54;;;;;;;15.93;15.33;;;;;;;;;;5500466;25;20526;-70
2024/04/17 10:15:20;;;;;;;16.33;15.63;;;;;;;;;;5499129;25;20532;-68
2024/04/17 10:17:49;;;;;;;16.40;15.70;;;;;;;;;;5493373;25;20590;-70
2024/04/17 10:20:31;;;;;;;16.83;16.13;;;;;;;;;;5498787;25;20947;-70
2024/04/17 10:23:05;;;;;;;16.60;15.90;;;;;;;;;;5494117;25;20579;-70
2024/04/17 10:25:32;;;;;;;16.83;16.13;;;;;;;;;;5500973;25;20545;-68
2024/04/17 10:28:07;;;;;;;16.90;16.20;;;;;;;;;;5497612;25;20469;-70
2024/04/17 10:30:37;;;;;;;16.67;15.97;;;;;;;;;;5499466;25;20902;-68
2024/04/17 10:33:06;;;;;;;16.43;15.73;;;;;;;;;;5489435;25;20464;-68
2024/04/17 10:35:35;;;;;;;17.47;16.67;;;;;;;;;;5500419;25;20610;-68
2024/04/17 10:38:15;;;;;;;16.87;16.17;;;;;;;;;;5493579;25;20472;-70
2024/04/17 10:40:41;;;;;;;16.77;16.07;;;;;;;;;;5496040;25;20520;-69
2024/04/17 10:43:10;;;;;;;16.60;15.90;;;;;;;;;;5499655;25;20970;-69
2024/04/17 10:45:40;;;;;;;16.10;15.50;;;;;;;;;;5492492;25;21836;-70
2024/04/17 10:48:16;;;;;;;16.80;16.10;;;;;;;;;;5499945;25;20481;-68
2024/04/17 10:50:45;;;;;;;17.00;16.30;;;;;;;;;;5492352;25;21370;-69
2024/04/17 10:53:14;;;;;;;17.00;16.30;;;;;;;;;;5492413;25;20549;-69
2024/04/17 10:55:40;;;;;;;16.40;15.70;;;;;;;;;;5488193;25;21209;-70
2024/04/17 10:58:10;;;;;;;17.20;16.50;;;;;;;;;;5496077;25;20489;-72
2024/04/17 11:00:36;;;;;;;16.90;16.20;;;;;;;;;;5495359;25;20468;-71
2024/04/17 11:03:06;;;;;;;17.47;16.77;;;;;;;;;;5493273;25;20474;-69
2024/04/17 11:05:32;;;;;;;17.30;16.60;;;;;;;;;;5493050;25;20569;-69
2024/04/17 11:08:05;;;;;;;17.03;16.33;;;;;;;;;;5491919;25;21076;-70
2024/04/17 11:10:31;;;;;;;17.13;16.43;;;;;;;;;;5492977;25;20520;-71
2024/04/17 11:13:00;;;;;;;17.27;16.57;;;;;;;;;;5491866;25;20466;-71
2024/04/17 11:15:26;;;;;;;16.60;15.90;;;;;;;;;;5496317;25;20492;-70
2024/04/17 11:17:55;;;;;;;17.20;16.50;;;;;;;;;;5499283;25;20849;-69
2024/04/17 11:20:22;;;;;;;17.20;16.50;;;;;;;;;;5499229;25;21017;-71
2024/04/17 11:22:51;;;;;;;16.60;15.90;;;;;;;;;;5493544;25;20473;-70
2024/04/17 11:25:20;;;;;;;15.40;14.80;;;;;;;;;;5489327;25;20481;-72
2024/04/17 11:27:49;;;;;;;14.60;14.10;;;;;;;;;;5495179;25;20586;-70
2024/04/17 11:30:17;;;;;;;14.83;14.33;;;;;;;;;;5496408;25;20925;-72
2024/04/17 11:32:45;;;;;;;13.97;13.47;;;;;;;;;;5495972;25;21060;-70
2024/04/17 11:35:14;;;;;;;14.57;14.07;;;;;;;;;;5496760;25;20494;-70
2024/04/17 11:37:43;;;;;;;13.10;12.70;;;;;;;;;;5496634;25;20465;-71
2024/04/17 11:40:10;;;;;;;14.10;13.60;;;;;;;;;;5492773;25;20573;-72
2024/04/17 11:42:43;;;;;;;14.30;13.80;;;;;;;;;;5489958;25;20602;-70
2024/04/17 11:45:12;;;;;;;14.63;14.13;;;;;;;;;;5487507;25;20528;-70
2024/04/17 11:47:41;;;;;;;14.53;14.03;;;;;;;;;;5498021;25;20479;-71
2024/04/17 11:50:07;;;;;;;15.40;14.80;;;;;;;;;;5500109;25;20565;-73
2024/04/17 11:52:37;;;;;;;16.30;15.60;;;;;;;;;;5494657;25;20476;-71
2024/04/17 11:55:04;;;;;;;15.40;14.80;;;;;;;;;;5487864;25;20480;-70
2024/04/17 11:57:33;;;;;;;15.50;14.90;;;;;;;;;;5496987;25;20573;-70
2024/04/17 12:00:03;;;;;;;15.00;14.50;;;;;;;;;;5492606;25;20479;-70
2024/04/17 12:02:33;;;;;;;15.87;15.27;;;;;;;;;;5494577;25;20488;-70
2024/04/17 12:04:59;;;;;;;16.03;15.43;;;;;;;;;;5502243;25;20526;-70
2024/04/17 12:07:29;;;;;;;15.53;14.93;;;;;;;;;;5491401;25;20458;-70
2024/04/17 12:09:55;;;;;;;15.73;15.13;;;;;;;;;;5497698;25;21058;-71
2024/04/17 12:12:24;;;;;;;15.60;15.00;;;;;;;;;;5492522;25;20544;-69
2024/04/17 12:14:54;;;;;;;15.40;14.80;;;;;;;;;;5492668;25;20477;-69
2024/04/17 12:17:26;;;;;;;15.60;15.00;;;;;;;;;;5498276;25;20525;-69
2024/04/17 12:19:52;;;;;;;15.80;15.20;;;;;;;;;;5498285;25;20458;-69
2024/04/17 12:22:21;;;;;;;15.50;14.90;;;;;;;;;;5494626;25;20534;-70
2024/04/17 12:27:35;;;;;;;15.87;15.27;;;;;;;;;;5501630;25;20860;-71
2024/04/17 12:30:04;;;;;;;16.17;15.57;;;;;;;;;;5498511;25;20483;-69
2024/04/17 12:32:36;;;;;;;16.70;16.00;;;;;;;;;;5488034;25;20637;-70
2024/04/17 12:35:07;;;;;;;17.30;16.60;;;;;;;;;;5499251;25;20519;-69
2024/04/17 12:37:38;;;;;;;17.10;16.40;;;;;;;;;;5498447;25;20522;-72
2024/04/17 12:40:08;;;;;;;17.07;16.37;;;;;;;;;;5494104;25;20958;-72
2024/04/17 12:42:37;;;;;;;17.13;16.43;;;;;;;;;;5490619;25;20455;-71
2024/04/17 12:45:06;;;;;;;16.67;16.07;;;;;;;;;;5490823;25;20472;-69
2024/04/17 12:47:38;;;;;;;17.00;16.30;;;;;;;;;;5497202;25;20472;-72
2024/04/17 12:50:07;;;;;;;17.27;16.57;;;;;;;;;;5495698;25;20466;-69
2024/04/17 12:52:37;;;;;;;16.97;16.30;;;;;;;;;;5499663;25;20539;-71
2024/04/17 12:55:08;;;;;;;17.03;16.33;;;;;;;;;;5496050;25;20484;-69
2024/04/17 12:57:37;;;;;;;16.90;16.20;;;;;;;;;;5490880;25;20473;-69
2024/04/17 13:00:07;;;;;;;17.33;16.63;;;;;;;;;;5496538;25;20549;-71
2024/04/17 13:02:38;;;;;;;17.17;16.47;;;;;;;;;;5498359;25;20484;-70
2024/04/17 13:05:06;;;;;;;17.60;16.90;;;;;;;;;;5497893;25;20471;-73
2024/04/17 13:07:35;;;;;;;17.67;16.97;;;;;;;;;;5499282;25;20478;-70
2024/04/17 13:10:02;;;;;;;18.30;17.60;;;;;;;;;;5488192;25;20476;-70
2024/04/17 13:12:31;;;;;;;18.30;17.60;;;;;;;;;;5499555;25;21061;-73
2024/04/17 13:14:58;;;;;;;18.03;17.33;;;;;;;;;;5498895;25;20473;-70
2024/04/17 13:17:27;;;;;;;17.57;16.90;;;;;;;;;;5500539;25;20466;-71
2024/04/17 13:19:57;;;;;;;17.10;16.50;;;;;;;;;;5497386;25;20527;-70
2024/04/17 13:22:26;;;;;;;17.70;17.10;;;;;;;;;;5492967;25;20478;-71
2024/04/17 13:24:53;;;;;;;17.27;16.67;;;;;;;;;;5497998;25;20607;-70
2024/04/17 13:27:22;;;;;;;18.00;17.30;;;;;;;;;;5493747;25;20533;-70
2024/04/17 13:29:49;;;;;;;17.60;16.90;;;;;;;;;;5501528;25;20491;-71
2024/04/17 13:32:19;;;;;;;17.70;17.00;;;;;;;;;;5495630;25;20469;-72
2024/04/17 13:34:45;;;;;;;16.50;15.90;;;;;;;;;;5492892;25;20898;-73
2024/04/17 13:37:17;;;;;;;16.60;16.00;;;;;;;;;;5498630;25;21156;-70
2024/04/17 13:39:43;;;;;;;16.87;16.27;;;;;;;;;;5495864;25;21036;-70
2024/04/17 13:42:13;;;;;;;16.97;16.37;;;;;;;;;;5495788;25;20553;-70
2024/04/17 13:44:39;;;;;;;16.80;16.20;;;;;;;;;;5498511;25;21111;-70
2024/04/17 13:47:09;;;;;;;17.33;16.73;;;;;;;;;;5495105;25;20965;-70
2024/04/17 13:49:35;;;;;;;17.20;16.60;;;;;;;;;;5493522;25;20468;-72
2024/04/17 13:52:05;;;;;;;17.30;16.70;;;;;;;;;;5499461;25;20912;-71
2024/04/17 13:54:34;;;;;;;17.20;16.50;;;;;;;;;;5497257;25;20476;-70
2024/04/17 13:57:03;;;;;;;16.97;16.33;;;;;;;;;;5490581;25;21116;-69
2024/04/17 13:59:30;;;;;;;17.27;16.57;;;;;;;;;;5491689;25;20483;-70
2024/04/17 14:01:59;;;;;;;17.07;16.40;;;;;;;;;;5498731;25;20850;-71
2024/04/17 14:04:26;;;;;;;17.10;16.50;;;;;;;;;;5499551;25;20476;-70
2024/04/17 14:06:56;;;;;;;17.47;16.77;;;;;;;;;;5491613;25;21152;-70
2024/04/17 14:09:22;;;;;;;17.47;16.77;;;;;;;;;;5497629;25;20474;-70
2024/04/17 14:11:54;;;;;;;16.83;16.23;;;;;;;;;;5492883;25;20607;-73
2024/04/17 14:14:21;;;;;;;17.23;16.63;;;;;;;;;;5498772;25;20452;-70
2024/04/17 14:16:52;;;;;;;17.50;16.90;;;;;;;;;;5492804;25;20466;-72
2024/04/17 14:19:18;;;;;;;17.00;16.40;;;;;;;;;;5498521;25;21165;-71
2024/04/17 14:21:47;;;;;;;17.40;16.80;;;;;;;;;;5499553;25;20548;-71
2024/04/17 14:24:14;;;;;;;16.60;16.00;;;;;;;;;;5494526;25;21044;-70
2024/04/17 14:26:43;;;;;;;16.90;16.30;;;;;;;;;;5499342;25;20996;-72